createdAt,value
2018-07-12T00:07:24.278Z,16.30
2018-07-12T00:12:29.518Z,16.30
2018-07-12T00:17:31.738Z,16.30
2018-07-12T00:22:33.930Z,16.30
2018-07-12T00:27:36.102Z,16.30
2018-07-12T00:32:38.282Z,16.30
2018-07-12T00:37:40.490Z,16.30
2018-07-12T00:42:42.668Z,16.20
2018-07-12T00:47:44.854Z,16.30
2018-07-12T00:52:47.051Z,16.30
2018-07-12T00:57:49.253Z,16.30
2018-07-12T01:02:51.434Z,16.30
2018-07-12T01:07:53.613Z,16.30
2018-07-12T01:12:55.798Z,16.30
2018-07-12T01:17:57.982Z,16.40
2018-07-12T01:23:01.163Z,16.30
2018-07-12T01:28:03.341Z,16.20
2018-07-12T01:33:05.531Z,16.30
2018-07-12T01:38:07.734Z,16.20
2018-07-12T01:43:10.206Z,16.10
2018-07-12T01:48:12.693Z,16.00
2018-07-12T01:53:14.903Z,16.00
2018-07-12T01:58:17.082Z,16.00
2018-07-12T02:03:19.254Z,15.90
2018-07-12T02:08:21.449Z,15.90
2018-07-12T02:13:23.630Z,15.90
2018-07-12T02:18:25.914Z,15.90
2018-07-12T02:23:28.127Z,15.90
2018-07-12T02:28:30.290Z,15.80
2018-07-12T02:33:32.498Z,15.70
2018-07-12T02:38:34.678Z,15.80
2018-07-12T02:43:36.862Z,15.70
2018-07-12T02:48:39.079Z,15.80
2018-07-12T02:53:41.256Z,15.80
2018-07-12T02:58:43.438Z,15.80
2018-07-12T03:03:45.680Z,15.80
2018-07-12T03:08:47.882Z,15.80
2018-07-12T03:13:50.231Z,15.80
2018-07-12T03:18:52.458Z,15.70
2018-07-12T03:23:54.653Z,15.70
2018-07-12T03:28:56.845Z,15.60
2018-07-12T03:33:59.998Z,15.60
2018-07-12T03:39:02.190Z,15.50
2018-07-12T03:44:04.362Z,15.50
2018-07-12T03:49:06.562Z,15.50
2018-07-12T03:54:08.743Z,15.50
2018-07-12T03:59:10.966Z,15.40
2018-07-12T04:04:13.181Z,15.50
2018-07-12T04:09:15.434Z,15.40
2018-07-12T04:14:17.697Z,15.40
2018-07-12T04:19:19.894Z,15.40
2018-07-12T04:24:25.548Z,15.40
2018-07-12T04:29:27.779Z,15.50
2018-07-12T04:34:29.979Z,15.40
2018-07-12T04:39:32.194Z,15.50
2018-07-12T04:44:34.404Z,15.50
2018-07-12T04:49:36.606Z,15.60
2018-07-12T04:54:38.792Z,15.60
2018-07-12T04:59:40.990Z,15.70
2018-07-12T05:04:43.170Z,15.70
2018-07-12T05:09:45.562Z,15.70
2018-07-12T05:14:47.733Z,15.70
2018-07-12T05:19:49.914Z,15.80
2018-07-12T05:24:52.117Z,15.80
2018-07-12T05:29:54.330Z,15.90
2018-07-12T05:34:56.498Z,16.00
2018-07-12T05:39:59.663Z,15.90
2018-07-12T05:45:06.422Z,16.00
2018-07-12T05:50:09.633Z,16.10
2018-07-12T05:55:12.795Z,16.10
2018-07-12T06:00:16.757Z,16.20
2018-07-12T06:05:19.902Z,16.30
2018-07-12T06:10:23.219Z,16.30
2018-07-12T06:15:26.299Z,16.40
2018-07-12T06:20:29.486Z,16.70
2018-07-12T06:25:33.529Z,16.50
2018-07-12T06:30:36.654Z,16.30
2018-07-12T06:35:39.811Z,16.30
2018-07-12T06:40:42.987Z,16.40
2018-07-12T06:45:46.175Z,16.40
2018-07-12T06:50:49.430Z,16.30
2018-07-12T06:55:52.750Z,16.60
2018-07-12T07:00:55.954Z,16.70
2018-07-12T07:05:59.150Z,16.70
2018-07-12T07:11:03.370Z,16.70
2018-07-12T07:16:07.301Z,16.80
2018-07-12T07:21:10.618Z,16.70
2018-07-12T07:26:13.832Z,16.90
2018-07-12T07:31:17.011Z,17.00
2018-07-12T07:36:20.266Z,16.90
2018-07-12T07:41:24.345Z,17.00
2018-07-12T07:46:27.538Z,17.20
2018-07-12T07:51:30.712Z,17.20
2018-07-12T07:56:33.898Z,17.20
2018-07-12T08:01:37.125Z,17.40
2018-07-12T08:06:40.370Z,17.80
2018-07-12T08:11:43.665Z,18.00
2018-07-12T08:16:46.808Z,18.10
2018-07-12T08:21:50.262Z,18.10
2018-07-12T08:26:53.642Z,17.90
2018-07-12T08:31:56.843Z,17.70
2018-07-12T08:37:00.074Z,18.10
2018-07-12T08:42:03.191Z,18.40
2018-07-12T08:47:06.373Z,18.50
2018-07-12T08:52:10.358Z,19.00
2018-07-12T08:57:13.576Z,18.80
2018-07-12T09:02:16.782Z,18.90
2018-07-12T09:07:20.138Z,19.20
2018-07-12T09:12:23.331Z,19.60
2018-07-12T09:17:26.464Z,19.60
2018-07-12T09:22:29.658Z,19.70
2018-07-12T09:27:32.901Z,20.00
2018-07-12T09:32:36.174Z,20.30
2018-07-12T09:37:39.693Z,20.10
2018-07-12T09:42:42.890Z,19.90
2018-07-12T09:47:47.086Z,20.40
2018-07-12T09:52:50.275Z,20.70
2018-07-12T09:58:05.814Z,20.50
2018-07-12T10:03:14.625Z,20.10
2018-07-12T10:08:24.224Z,20.10
2018-07-12T10:13:31.719Z,20.60
2018-07-12T10:18:34.882Z,20.40
2018-07-12T10:23:38.106Z,20.50
2018-07-12T10:28:41.346Z,21.40
2018-07-12T10:33:44.565Z,21.50
2018-07-12T10:38:48.946Z,21.30
2018-07-12T10:43:52.205Z,21.00
2018-07-12T10:48:55.398Z,21.10
2018-07-12T10:53:58.690Z,21.40
2018-07-12T10:59:01.907Z,21.40
2018-07-12T11:04:06.617Z,21.70
2018-07-12T11:09:11.066Z,22.00
2018-07-12T11:14:18.342Z,21.70
2018-07-12T11:19:22.231Z,22.00
2018-07-12T11:24:26.500Z,22.50
2018-07-12T11:29:43.006Z,22.80
2018-07-12T11:34:48.856Z,22.80
2018-07-12T11:39:53.079Z,22.20
2018-07-12T11:45:01.727Z,21.70
2018-07-12T11:50:05.048Z,21.50
2018-07-12T11:55:08.196Z,22.40
2018-07-12T12:00:11.452Z,23.00
2018-07-12T12:05:14.650Z,22.80
2018-07-12T12:10:17.869Z,23.20
2018-07-12T12:15:23.193Z,23.20
2018-07-12T12:20:26.494Z,23.60
2018-07-12T12:25:30.286Z,23.30
2018-07-12T12:30:41.330Z,23.50
2018-07-12T12:35:47.838Z,24.00
2018-07-12T12:40:51.482Z,24.40
2018-07-12T12:45:54.690Z,23.80
2018-07-12T12:51:13.081Z,23.30
2018-07-12T12:56:16.289Z,23.80
2018-07-12T13:01:19.463Z,24.30
2018-07-12T13:06:23.166Z,24.40
2018-07-12T13:11:26.311Z,24.30
2018-07-12T13:16:29.490Z,24.60
2018-07-12T13:26:35.621Z,24.90
2018-07-12T13:31:39.986Z,24.70
2018-07-12T13:36:43.225Z,24.50
2018-07-12T13:41:50.142Z,24.60
2018-07-12T13:46:54.952Z,24.60
2018-07-12T13:51:59.831Z,24.30
2018-07-12T13:57:03.012Z,24.70
2018-07-12T14:02:06.587Z,24.90
2018-07-12T14:07:09.739Z,24.70
2018-07-12T14:12:12.996Z,24.70
2018-07-12T14:22:19.176Z,24.80
2018-07-12T14:27:26.731Z,24.40
2018-07-12T14:32:30.682Z,24.70
2018-07-12T14:37:33.890Z,24.70
2018-07-12T14:42:37.025Z,24.50
2018-07-12T14:47:40.182Z,24.20
2018-07-12T14:52:43.393Z,24.00
2018-07-12T14:57:46.585Z,24.00
2018-07-12T15:02:49.774Z,24.30
2018-07-12T15:07:52.957Z,24.70
2018-07-12T15:12:56.086Z,24.90
2018-07-12T15:17:59.306Z,24.90
2018-07-12T15:23:02.504Z,25.10
2018-07-12T15:28:05.937Z,25.20
2018-07-12T15:33:08.831Z,25.10
2018-07-12T15:38:11.970Z,24.80
2018-07-12T15:43:15.140Z,24.70
2018-07-12T15:48:18.286Z,24.60
2018-07-12T15:53:21.484Z,24.10
2018-07-12T15:58:24.658Z,23.80
2018-07-12T16:03:27.883Z,23.60
2018-07-12T16:08:31.142Z,23.50
2018-07-12T16:13:34.399Z,23.80
2018-07-12T16:18:37.489Z,24.00
2018-07-12T16:23:40.631Z,24.20
2018-07-12T16:28:43.795Z,24.00
2018-07-12T16:33:46.959Z,23.70
2018-07-12T16:38:50.151Z,23.30
2018-07-12T16:43:53.285Z,23.50
2018-07-12T16:48:56.430Z,23.50
2018-07-12T16:53:59.546Z,23.60
2018-07-12T16:59:02.767Z,23.60
2018-07-12T17:04:05.978Z,23.60
2018-07-12T17:09:09.140Z,23.70
2018-07-12T17:14:12.417Z,23.70
2018-07-12T17:19:15.486Z,23.90
2018-07-12T17:24:18.854Z,24.10
2018-07-12T17:34:24.988Z,24.20
2018-07-12T17:39:28.157Z,24.00
2018-07-12T17:44:32.295Z,23.70
2018-07-12T17:49:35.623Z,23.40
2018-07-12T17:54:38.761Z,23.10
2018-07-12T17:59:41.902Z,22.80
2018-07-12T18:04:45.036Z,22.60
2018-07-12T18:09:48.170Z,22.50
2018-07-12T18:14:51.337Z,22.30
2018-07-12T18:19:54.502Z,22.10
2018-07-12T18:24:57.657Z,21.90
2018-07-12T18:30:00.790Z,21.70
2018-07-12T18:35:03.976Z,21.50
2018-07-12T18:40:07.123Z,21.40
2018-07-12T18:45:10.283Z,21.30
2018-07-12T18:50:13.422Z,21.30
2018-07-12T18:55:16.583Z,21.20
2018-07-12T19:00:19.746Z,21.10
2018-07-12T19:05:22.912Z,21.10
2018-07-12T19:10:26.078Z,21.10
2018-07-12T19:15:29.278Z,21.10
2018-07-12T19:20:32.402Z,20.90
2018-07-12T19:25:35.559Z,20.90
2018-07-12T19:30:38.723Z,20.70
2018-07-12T19:35:41.854Z,20.70
2018-07-12T19:40:44.994Z,20.80
2018-07-12T19:45:48.200Z,20.70
2018-07-12T19:50:53.449Z,20.80
2018-07-12T19:55:56.741Z,20.80
2018-07-12T20:00:59.966Z,20.70
2018-07-12T20:06:03.204Z,20.50
2018-07-12T20:11:06.366Z,20.30
2018-07-12T20:16:11.550Z,20.30
2018-07-12T20:21:14.746Z,20.20
2018-07-12T20:26:17.886Z,20.20
2018-07-12T20:31:26.182Z,20.20
2018-07-12T20:36:42.665Z,20.20
2018-07-12T20:41:45.863Z,20.10
2018-07-12T20:46:49.008Z,20.10
2018-07-12T20:51:52.185Z,20.00
2018-07-12T20:56:55.327Z,20.00
2018-07-12T21:01:58.479Z,19.90
2018-07-12T21:07:01.648Z,19.90
2018-07-12T21:12:04.823Z,19.70
2018-07-12T21:17:08.086Z,19.80
2018-07-12T21:22:11.294Z,19.90
2018-07-12T21:27:14.434Z,19.80
2018-07-12T21:32:17.575Z,19.80
2018-07-12T21:37:20.926Z,19.80
2018-07-12T21:42:24.183Z,19.70
2018-07-12T21:47:27.334Z,19.70
2018-07-12T21:52:30.458Z,19.50
2018-07-12T21:57:33.782Z,19.30
2018-07-12T22:02:36.910Z,19.20
2018-07-12T22:07:53.107Z,19.10
2018-07-12T22:12:56.266Z,19.20
2018-07-12T22:17:59.560Z,19.10
2018-07-12T22:23:02.802Z,19.00
2018-07-12T22:28:06.023Z,18.90
2018-07-12T22:33:09.220Z,18.80
2018-07-12T22:38:12.346Z,18.70
2018-07-12T22:43:15.551Z,18.60
2018-07-12T22:48:18.925Z,18.60
2018-07-12T22:53:22.783Z,18.60
2018-07-12T22:58:25.926Z,18.50
2018-07-12T23:03:29.085Z,18.50
2018-07-12T23:08:32.262Z,18.40
2018-07-12T23:13:35.398Z,18.50
2018-07-12T23:18:38.551Z,18.50
2018-07-12T23:23:41.698Z,18.40
2018-07-12T23:28:44.830Z,18.50
2018-07-12T23:33:47.950Z,18.40
2018-07-12T23:38:51.962Z,18.30
2018-07-12T23:43:55.075Z,18.10
2018-07-12T23:48:58.185Z,18.10
2018-07-12T23:54:01.333Z,18.00
2018-07-12T23:59:04.490Z,17.90
